Time;durP1;ratioP1;P1;durP2;ratioP2;P2;SDS_P1;SDS_P2;PMS_P1;PMS_P2;Temp;Humidity;BMP_temperature;BMP_pressure;BME280_temperature;BME280_humidity;BME280_pressure;Samples;Min_cycle;Max_cycle;Signal;HPM_P1;HPM_P2
2022/04/26 03:37:23;;;;;;;4.93;2.20;;;18.00;52.10;19.00;100541.00;;;;5008218;28;20167;-52
2022/04/26 03:39:49;;;;;;;2.97;1.90;;;18.00;52.00;19.00;100548.00;;;;5010301;28;20177;-52
2022/04/26 03:42:15;;;;;;;8.03;2.20;;;18.00;51.90;19.00;100542.00;;;;5006803;28;20202;-52
2022/04/26 03:44:40;;;;;;;4.40;2.00;;;18.00;51.90;19.00;100542.00;;;;5006734;28;20700;-50
2022/04/26 03:47:07;;;;;;;6.90;2.20;;;18.00;52.10;19.00;100477.00;;;;5006545;28;20705;-52
2022/04/26 03:49:32;;;;;;;2.83;2.03;;;18.00;52.20;19.00;100539.00;;;;5007093;28;20222;-53
2022/04/26 03:51:58;;;;;;;3.73;2.10;;;18.00;52.10;19.00;100532.00;;;;5009441;28;20170;-50
2022/04/26 03:54:24;;;;;;;2.50;2.20;;;18.00;52.10;19.00;100556.00;;;;5006440;28;20374;-52
2022/04/26 03:56:50;;;;;;;4.27;2.30;;;18.00;52.00;19.00;100554.00;;;;5006368;28;20175;-51
2022/04/26 03:59:16;;;;;;;6.90;2.20;;;17.90;51.90;19.00;100545.00;;;;5006396;28;20177;-51
2022/04/26 04:01:41;;;;;;;3.53;2.03;;;18.00;52.10;19.00;100555.00;;;;5004987;28;20182;-52
2022/04/26 04:04:07;;;;;;;5.33;2.40;;;17.90;52.00;19.00;100555.00;;;;4998766;28;20719;-51
2022/04/26 04:06:33;;;;;;;4.77;2.10;;;17.90;52.00;19.00;100552.00;;;;4994662;28;20294;-51
2022/04/26 04:08:59;;;;;;;4.40;2.07;;;18.00;52.10;19.00;100551.00;;;;4986456;28;20646;-51
2022/04/26 04:11:24;;;;;;;2.83;1.93;;;18.00;52.10;19.00;100543.00;;;;4984582;28;20183;-51
2022/04/26 04:13:50;;;;;;;2.60;1.90;;;17.90;51.90;19.00;100538.00;;;;4985518;28;20232;-52
2022/04/26 04:16:16;;;;;;;3.30;1.80;;;17.90;51.80;19.00;100549.00;;;;4985683;28;20404;-51
2022/04/26 04:21:25;;;;;;;3.87;2.10;;;17.90;52.40;19.00;100538.00;;;;4986540;28;20605;-54
2022/04/26 04:23:51;;;;;;;3.30;2.10;;;17.90;51.70;19.00;100545.00;;;;4985184;28;20206;-52
2022/04/26 04:26:17;;;;;;;2.10;1.80;;;17.90;51.70;18.90;100546.00;;;;5000363;28;20168;-51
2022/04/26 04:28:43;;;;;;;2.13;1.90;;;17.90;51.70;18.90;100550.00;;;;5005524;28;20546;-51
2022/04/26 04:31:09;;;;;;;2.77;2.00;;;17.90;51.70;18.90;100551.00;;;;5004293;28;20266;-51
2022/04/26 04:33:36;;;;;;;4.47;2.43;;;17.80;51.50;18.90;100554.00;;;;5005077;28;20608;-51
2022/04/26 04:36:02;;;;;;;3.13;1.90;;;17.80;51.50;18.90;100552.00;;;;5004821;28;20194;-51
2022/04/26 04:38:28;;;;;;;2.43;2.00;;;17.80;51.40;18.90;100557.00;;;;5007175;28;20199;-51
2022/04/26 04:40:54;;;;;;;3.07;1.93;;;17.80;51.40;18.90;100562.00;;;;5006938;28;20725;-52
2022/04/26 04:43:20;;;;;;;2.73;1.90;;;17.80;51.40;18.90;100568.00;;;;5004902;28;20202;-51
2022/04/26 04:45:47;;;;;;;1.90;1.80;;;17.80;51.30;18.90;100566.00;;;;5005513;28;20307;-51
2022/04/26 04:48:13;;;;;;;1.90;1.80;;;17.80;51.30;18.90;100566.00;;;;5004887;28;20523;-52
2022/04/26 04:50:38;;;;;;;2.33;1.90;;;17.80;51.30;18.90;100571.00;;;;5005443;28;20172;-51
2022/04/26 04:53:04;;;;;;;1.80;1.70;;;17.80;51.30;18.90;100582.00;;;;5005034;28;20211;-51
2022/04/26 04:55:30;;;;;;;2.73;1.90;;;17.80;51.30;18.80;100577.00;;;;5005274;28;20176;-51
2022/04/26 04:57:55;;;;;;;2.57;1.80;;;17.80;51.30;18.80;100573.00;;;;5004916;28;20199;-51
2022/04/26 05:00:21;;;;;;;1.90;1.80;;;17.80;51.30;18.80;100577.00;;;;5005188;28;20208;-51
2022/04/26 05:02:47;;;;;;;2.73;2.10;;;17.80;51.20;18.80;100577.00;;;;5004239;28;20206;-52
2022/04/26 05:05:13;;;;;;;2.00;1.90;;;17.70;51.10;18.80;100582.00;;;;5004795;28;20172;-51
2022/04/26 05:07:38;;;;;;;2.00;1.80;;;17.70;51.10;18.80;100579.00;;;;5004275;28;20920;-52
2022/04/26 05:10:05;;;;;;;3.53;1.93;;;17.70;51.00;18.80;100591.00;;;;5005185;28;20168;-53
2022/04/26 05:12:31;;;;;;;4.43;2.07;;;17.70;51.10;18.80;100597.00;;;;5005313;28;20192;-50
2022/04/26 05:14:57;;;;;;;5.00;2.10;;;17.70;51.40;18.80;100603.00;;;;5005071;28;20880;-51
2022/04/26 05:17:22;;;;;;;4.93;2.30;;;17.70;51.50;18.80;100610.00;;;;5004825;28;20657;-52
2022/04/26 05:19:48;;;;;;;6.87;2.30;;;17.70;51.60;18.80;100610.00;;;;5003878;28;20187;-51
2022/04/26 05:22:14;;;;;;;5.20;2.30;;;17.70;51.70;18.80;100616.00;;;;5003790;28;20195;-52
2022/04/26 05:24:58;;;;;;;5.43;2.23;;;17.70;51.70;18.80;100610.00;;;;5004903;28;20156;-51
2022/04/26 05:27:28;;;;;;;3.67;2.13;;;17.70;51.70;18.80;100611.00;;;;5005539;28;20178;-51
2022/04/26 05:29:54;;;;;;;3.80;2.50;;;17.70;51.80;18.70;100618.00;;;;5005362;28;20797;-53
2022/04/26 05:32:28;;;;;;;3.90;2.30;;;17.70;51.80;18.70;100622.00;;;;5005044;28;20197;-53
2022/04/26 05:35:03;;;;;;;2.50;2.30;;;17.70;51.80;18.70;100613.00;;;;5004728;28;20222;-51
2022/04/26 05:37:30;;;;;;;2.60;2.40;;;17.70;51.80;18.70;100618.00;;;;5005132;28;20279;-52
2022/04/26 05:40:02;;;;;;;2.60;2.40;;;17.60;51.80;18.70;100614.00;;;;5005251;28;20178;-51
2022/04/26 05:42:31;;;;;;;3.80;2.50;;;17.70;51.90;18.70;100609.00;;;;5005003;28;20635;-52
2022/04/26 05:44:57;;;;;;;2.97;2.67;;;17.60;51.90;18.70;100623.00;;;;5008464;28;20172;-51
2022/04/26 05:47:23;;;;;;;4.53;2.57;;;17.60;51.90;18.70;100622.00;;;;5004625;28;20239;-51
2022/04/26 05:49:48;;;;;;;2.87;2.60;;;17.60;51.90;18.70;100619.00;;;;5009287;28;20197;-51
2022/04/26 05:52:14;;;;;;;4.93;2.63;;;17.60;51.90;18.70;100622.00;;;;5015538;28;20236;-51
2022/04/26 05:54:40;;;;;;;2.80;2.60;;;17.60;52.00;18.70;100613.00;;;;5016897;28;20169;-53
2022/04/26 05:57:05;;;;;;;2.73;2.50;;;17.60;51.90;18.70;100632.00;;;;5010976;28;20765;-52
2022/04/26 05:59:31;;;;;;;3.23;2.87;;;17.60;52.00;18.70;100633.00;;;;5008753;28;20608;-52
2022/04/26 06:01:57;;;;;;;3.07;2.80;;;17.60;52.00;18.70;100629.00;;;;5008294;28;20738;-52
2022/04/26 06:04:24;;;;;;;3.17;2.97;;;17.60;52.00;18.60;100639.00;;;;5007059;28;20209;-50
2022/04/26 06:06:51;;;;;;;3.27;3.00;;;17.60;52.00;18.60;100638.00;;;;5007741;28;20166;-52
2022/04/26 06:09:16;;;;;;;3.63;3.10;;;17.60;52.10;18.70;100632.00;;;;5008385;28;20170;-51
2022/04/26 06:11:42;;;;;;;3.57;3.27;;;17.60;52.10;18.60;100625.00;;;;5008318;28;20173;-52
2022/04/26 06:14:08;;;;;;;3.33;3.03;;;17.50;52.00;18.60;100625.00;;;;5007845;28;20200;-53
2022/04/26 06:16:34;;;;;;;3.60;3.30;;;17.60;52.10;18.60;100628.00;;;;5007305;28;20279;-50
2022/04/26 06:18:59;;;;;;;3.50;3.20;;;17.60;52.10;18.60;100623.00;;;;5023301;28;20188;-52
2022/04/26 06:21:25;;;;;;;3.50;3.30;;;17.50;52.10;18.60;100623.00;;;;5023411;28;20180;-50
2022/04/26 06:23:51;;;;;;;3.33;3.10;;;17.50;52.20;18.60;100621.00;;;;5007380;28;20196;-51
2022/04/26 06:26:17;;;;;;;4.23;3.93;;;17.50;52.20;18.60;100633.00;;;;5007611;28;20590;-51
2022/04/26 06:28:42;;;;;;;4.53;4.13;;;17.50;52.10;18.60;100621.00;;;;5007623;28;20173;-52
2022/04/26 06:31:08;;;;;;;4.77;4.37;;;17.50;52.20;18.50;100634.00;;;;5007763;28;20239;-52
2022/04/26 06:33:34;;;;;;;5.17;4.67;;;17.50;52.20;18.50;100631.00;;;;5005088;28;20197;-53
2022/04/26 06:36:00;;;;;;;5.10;4.60;;;17.50;52.20;18.50;100635.00;;;;5006625;28;20187;-52
2022/04/26 06:38:26;;;;;;;4.80;4.40;;;17.50;52.20;18.50;100642.00;;;;5007566;28;20173;-51
2022/04/26 06:40:52;;;;;;;5.20;4.80;;;17.50;52.20;18.50;100633.00;;;;5007558;28;20230;-51
2022/04/26 06:43:18;;;;;;;5.27;4.80;;;17.50;52.30;18.60;100638.00;;;;5007171;28;20202;-50
2022/04/26 06:45:44;;;;;;;5.90;5.40;;;17.50;52.30;18.50;100643.00;;;;5006817;28;20165;-50
2022/04/26 06:48:13;;;;;;;5.60;5.20;;;17.50;52.90;18.50;100645.00;;;;5007623;28;20180;-50
2022/04/26 06:50:40;;;;;;;5.90;5.40;;;17.50;52.30;18.50;100640.00;;;;5008031;28;20187;-51
2022/04/26 06:53:06;;;;;;;6.20;5.60;;;17.50;52.30;18.50;100599.00;;;;5007390;28;20253;-50
2022/04/26 06:55:32;;;;;;;5.93;5.50;;;17.40;52.30;18.50;100662.00;;;;5007307;28;20187;-51
2022/04/26 06:57:57;;;;;;;6.27;5.77;;;17.40;52.30;18.50;100673.00;;;;5007683;28;20166;-51
2022/04/26 07:00:23;;;;;;;7.07;6.47;;;17.40;52.30;18.50;100667.00;;;;5007080;28;20303;-51
2022/04/26 07:02:49;;;;;;;7.07;6.37;;;17.50;52.40;18.50;100675.00;;;;5007495;28;20260;-52
2022/04/26 07:05:15;;;;;;;7.57;6.87;;;17.40;52.40;18.50;100674.00;;;;5007286;28;20173;-51
2022/04/26 07:07:40;;;;;;;7.73;7.03;;;17.40;52.40;18.50;100671.00;;;;5007308;28;20257;-52
2022/04/26 07:10:07;;;;;;;8.00;7.17;;;17.40;52.40;18.50;100670.00;;;;5007150;28;20719;-51
2022/04/26 07:12:32;;;;;;;7.53;6.83;;;17.40;52.40;18.40;100674.00;;;;5005962;28;20197;-51
2022/04/26 07:14:58;;;;;;;8.07;7.27;;;17.40;52.40;18.40;100677.00;;;;5006996;28;20181;-51
2022/04/26 07:17:24;;;;;;;7.60;6.90;;;17.30;52.40;18.40;100696.00;;;;5003552;28;20513;-52
2022/04/26 07:19:50;;;;;;;7.80;7.03;;;17.40;52.50;18.40;100698.00;;;;5009438;28;20556;-51
2022/04/26 07:22:16;;;;;;;7.90;7.20;;;17.40;52.40;18.50;100690.00;;;;5009612;28;20201;-51
2022/04/26 07:24:42;;;;;;;8.17;7.37;;;17.40;52.40;18.40;100687.00;;;;5009736;28;20183;-51
2022/04/26 07:27:08;;;;;;;8.53;7.73;;;17.40;52.40;18.40;100693.00;;;;5009154;28;20574;-50
2022/04/26 07:29:34;;;;;;;8.27;7.47;;;17.40;52.40;18.40;100683.00;;;;5009035;28;20163;-51
2022/04/26 07:32:00;;;;;;;8.07;7.27;;;17.30;52.40;18.40;100683.00;;;;5009430;28;20287;-50
2022/04/26 07:34:26;;;;;;;8.40;7.70;;;17.30;52.40;18.40;100701.00;;;;5011043;28;20245;-51
2022/04/26 07:37:02;;;;;;;8.33;7.50;;;17.30;52.50;18.40;100701.00;;;;5012437;28;20270;-51
2022/04/26 07:39:29;;;;;;;9.77;7.80;;;17.30;52.40;18.40;100700.00;;;;5009700;28;20156;-51
2022/04/26 07:41:55;;;;;;;8.23;7.43;;;17.30;53.20;18.40;100702.00;;;;5024136;28;20544;-51
2022/04/26 07:44:21;;;;;;;8.20;7.40;;;17.30;52.90;18.40;100707.00;;;;5009483;28;20251;-52
2022/04/26 07:46:48;;;;;;;8.50;7.70;;;17.30;53.10;18.40;100712.00;;;;5009328;28;20195;-52
2022/04/26 07:49:15;;;;;;;9.50;8.00;;;17.30;53.20;18.40;100714.00;;;;5009857;28;20169;-50
2022/04/26 07:51:41;;;;;;;8.83;7.93;;;17.30;53.20;18.40;100714.00;;;;5009455;28;20537;-51
2022/04/26 07:54:07;;;;;;;11.70;7.80;;;17.20;53.70;18.40;100721.00;;;;5009275;28;20271;-50
2022/04/26 07:56:33;;;;;;;8.50;7.47;;;17.20;53.90;18.40;100715.00;;;;5024339;28;20596;-50
2022/04/26 07:59:01;;;;;;;12.67;7.70;;;17.20;53.60;18.40;100726.00;;;;4941087;28;20192;-50
2022/04/26 08:01:28;;;;;;;9.97;6.77;;;17.30;53.60;18.30;100721.00;;;;5009387;28;20279;-51
2022/04/26 08:03:54;;;;;;;9.67;7.23;;;17.30;53.30;18.40;100720.00;;;;5007840;28;20891;-50
2022/04/26 08:06:20;;;;;;;8.43;6.80;;;17.30;53.20;18.40;100708.00;;;;5008181;28;20182;-49
2022/04/26 08:08:46;;;;;;;10.70;6.63;;;17.30;52.90;18.40;100721.00;;;;5008573;28;20172;-50
2022/04/26 08:11:13;;;;;;;10.70;6.80;;;17.30;53.10;18.40;100724.00;;;;5008643;28;20231;-49
2022/04/26 08:13:40;;;;;;;8.87;6.27;;;17.30;53.20;18.40;100730.00;;;;5007371;28;20703;-49
2022/04/26 08:16:09;;;;;;;11.40;6.63;;;17.30;53.10;18.40;100735.00;;;;5007053;28;20178;-47
2022/04/26 08:18:35;;;;;;;6.90;6.20;;;17.30;53.20;18.40;100732.00;;;;5008410;28;20178;-50
2022/04/26 08:21:00;;;;;;;9.57;6.27;;;17.30;53.10;18.40;100737.00;;;;5008537;28;20259;-50
2022/04/26 08:23:26;;;;;;;6.33;5.70;;;17.30;53.10;18.30;100735.00;;;;5007898;28;20207;-50
2022/04/26 08:28:36;;;;;;;8.23;5.90;;;17.30;52.90;18.30;100738.00;;;;5010118;28;20175;-51
2022/04/26 08:31:02;;;;;;;6.33;5.37;;;17.30;52.80;18.30;100750.00;;;;5013164;28;20171;-51
2022/04/26 08:33:30;;;;;;;6.43;5.80;;;17.30;52.80;18.30;100749.00;;;;5016513;28;20191;-51
2022/04/26 08:35:56;;;;;;;7.07;5.50;;;17.20;52.70;18.30;100760.00;;;;5012819;28;20533;-54
2022/04/26 08:38:21;;;;;;;7.50;5.80;;;17.30;52.80;18.40;100757.00;;;;5008567;28;20171;-51
2022/04/26 08:40:47;;;;;;;10.67;5.57;;;17.30;52.90;18.30;100765.00;;;;5008372;28;20176;-52
2022/04/26 08:43:13;;;;;;;8.83;5.63;;;17.30;52.80;18.30;100775.00;;;;5007862;28;20677;-51
2022/04/26 08:45:39;;;;;;;7.90;5.63;;;17.30;52.80;18.30;100773.00;;;;5008288;28;20175;-52
2022/04/26 08:50:59;;;;;;;8.30;5.60;;;17.20;52.50;18.30;100780.00;;;;5008495;28;20771;-52
2022/04/26 08:53:26;;;;;;;8.87;5.83;;;17.30;52.50;18.30;100792.00;;;;5007451;28;20225;-52
2022/04/26 08:55:53;;;;;;;7.80;5.43;;;17.30;52.50;18.30;100796.00;;;;5008360;28;20173;-52
2022/04/26 08:58:19;;;;;;;6.30;5.00;;;17.20;52.30;18.30;100796.00;;;;5008231;28;20165;-51
2022/04/26 09:01:18;;;;;;;7.83;5.50;;;17.20;52.30;18.30;100797.00;;;;4957954;28;20205;-50
2022/04/26 09:03:56;;;;;;;5.80;5.20;;;17.20;52.30;18.30;100803.00;;;;5026912;28;20706;-52
2022/04/26 09:06:40;;;;;;;6.40;5.10;;;17.20;52.30;18.30;100802.00;;;;5028430;28;20164;-50
2022/04/26 09:09:24;;;;;;;6.53;4.90;;;17.20;52.30;18.30;100803.00;;;;5027568;28;20641;-50
2022/04/26 09:11:50;;;;;;;6.53;5.00;;;17.20;52.30;18.30;100807.00;;;;5027698;28;20179;-51
2022/04/26 09:14:35;;;;;;;5.83;5.07;;;17.20;52.30;18.30;100810.00;;;;5026494;28;20168;-51
2022/04/26 09:17:11;;;;;;;7.37;5.30;;;17.20;52.30;18.30;100810.00;;;;5010873;28;20538;-51
2022/04/26 09:19:52;;;;;;;6.17;5.40;;;17.20;52.30;18.30;100817.00;;;;5019470;28;20196;-51
2022/04/26 09:22:25;;;;;;;12.00;5.17;;;17.20;52.30;18.30;100823.00;;;;5008093;28;20288;-51
2022/04/26 09:25:06;;;;;;;5.93;5.10;;;17.20;52.30;18.30;100844.00;;;;5017042;28;20189;-50
2022/04/26 09:27:41;;;;;;;10.60;5.00;;;17.20;52.30;18.30;100835.00;;;;5012079;28;20199;-52
2022/04/26 09:30:12;;;;;;;7.37;5.10;;;17.20;52.30;18.20;100833.00;;;;5011508;28;20190;-51
2022/04/26 09:32:46;;;;;;;7.27;5.77;;;17.20;52.30;18.20;100826.00;;;;5011905;28;20728;-51
2022/04/26 09:35:22;;;;;;;11.83;5.57;;;17.20;52.30;18.20;100836.00;;;;5010682;28;20211;-51
2022/04/26 09:37:48;;;;;;;10.73;5.63;;;17.20;52.40;18.20;100832.00;;;;5011513;28;20302;-51
2022/04/26 09:40:14;;;;;;;10.40;5.67;;;17.10;52.30;18.20;100845.00;;;;5011463;28;20184;-51
2022/04/26 09:42:40;;;;;;;11.33;6.23;;;17.10;52.30;18.20;100843.00;;;;5011503;28;20209;-51
2022/04/26 09:45:10;;;;;;;13.43;6.77;;;17.10;52.30;18.20;100844.00;;;;5009598;28;20185;-52
2022/04/26 09:47:40;;;;;;;11.43;6.33;;;17.10;52.50;18.30;100847.00;;;;5008199;28;20187;-52
2022/04/26 09:50:23;;;;;;;13.77;6.60;;;17.10;52.60;18.20;100857.00;;;;5011107;28;20169;-50
2022/04/26 09:52:49;;;;;;;13.43;6.67;;;17.20;52.70;18.20;100849.00;;;;4992684;28;20735;-51
2022/04/26 09:55:15;;;;;;;10.63;6.37;;;17.20;52.60;18.20;100867.00;;;;5010738;28;20172;-52
2022/04/26 09:57:42;;;;;;;12.43;6.47;;;17.20;52.60;18.20;100866.00;;;;5010873;28;20699;-51
2022/04/26 10:00:12;;;;;;;14.77;6.67;;;17.20;52.70;18.20;100866.00;;;;4955345;28;20175;-52
2022/04/26 10:02:44;;;;;;;14.53;6.90;;;17.20;52.70;18.20;100861.00;;;;5030343;28;20235;-52
2022/04/26 10:05:10;;;;;;;17.90;7.30;;;17.20;52.60;18.20;100864.00;;;;5031768;28;20161;-51
2022/04/26 10:07:40;;;;;;;17.27;6.90;;;17.10;52.90;18.20;100865.00;;;;5039532;28;20178;-51
2022/04/26 10:10:06;;;;;;;14.57;6.90;;;17.10;52.90;18.20;100865.00;;;;5040164;28;20175;-52
2022/04/26 10:12:32;;;;;;;15.17;6.30;;;17.20;52.80;18.20;100870.00;;;;5038471;28;20198;-51
2022/04/26 10:14:59;;;;;;;9.37;6.20;;;17.10;52.70;18.20;100871.00;;;;5033805;28;20168;-51
2022/04/26 10:17:25;;;;;;;10.23;6.57;;;17.10;52.80;18.20;100863.00;;;;5012400;28;20214;-52
2022/04/26 10:19:50;;;;;;;13.47;6.37;;;17.20;53.00;18.20;100870.00;;;;5031165;28;20179;-52
2022/04/26 10:22:18;;;;;;;8.60;6.10;;;17.10;53.00;18.20;100875.00;;;;5028713;28;20237;-51
2022/04/26 10:25:12;;;;;;;14.17;6.77;;;17.20;53.10;18.20;100875.00;;;;5029931;28;20188;-51
2022/04/26 10:27:37;;;;;;;10.70;6.93;;;17.10;53.20;18.20;100875.00;;;;5030567;28;20650;-51
2022/04/26 10:30:04;;;;;;;11.93;7.00;;;17.10;53.20;18.20;100869.00;;;;5030411;28;20181;-51
2022/04/26 10:32:35;;;;;;;15.47;8.30;;;17.10;53.50;18.20;100863.00;;;;4996577;28;20267;-53
2022/04/26 10:35:25;;;;;;;13.87;8.47;;;17.10;54.00;18.20;100877.00;;;;5009044;28;20168;-52
2022/04/26 10:38:15;;;;;;;13.30;9.20;;;17.10;54.20;18.20;100880.00;;;;5010221;28;20232;-56
2022/04/26 10:41:03;;;;;;;17.53;9.73;;;17.10;54.30;18.20;100875.00;;;;5011072;28;20173;-52
2022/04/26 10:43:29;;;;;;;14.93;10.07;;;17.20;54.70;18.20;100881.00;;;;5009705;28;20858;-51
2022/04/26 10:46:12;;;;;;;15.07;9.77;;;17.30;55.80;18.20;100881.00;;;;5008905;28;20171;-52
2022/04/26 10:48:38;;;;;;;16.30;10.53;;;17.30;56.40;18.20;100881.00;;;;5010400;28;20694;-51
2022/04/26 10:51:36;;;;;;;15.27;10.53;;;17.30;55.80;18.20;100873.00;;;;5008977;28;20167;-52
2022/04/26 10:54:02;;;;;;;16.83;11.03;;;17.30;56.20;18.20;100873.00;;;;5009017;28;20216;-51
2022/04/26 10:56:30;;;;;;;12.43;10.80;;;17.30;56.40;18.20;100792.00;;;;5008663;28;20182;-52
2022/04/26 10:58:55;;;;;;;13.23;10.30;;;17.30;56.30;18.20;100888.00;;;;4932568;28;22815;-51
2022/04/26 11:01:25;;;;;;;11.63;10.03;;;17.30;56.00;18.20;100877.00;;;;5029209;28;20562;-52
2022/04/26 11:03:58;;;;;;;13.83;10.23;;;17.30;56.00;18.30;100884.00;;;;5028746;28;20852;-52
2022/04/26 11:06:37;;;;;;;13.07;9.90;;;17.40;55.80;18.30;100890.00;;;;5029258;28;20163;-52
2022/04/26 11:09:11;;;;;;;12.87;10.20;;;17.40;55.60;18.30;100886.00;;;;5029735;28;20172;-51
2022/04/26 11:11:49;;;;;;;10.97;9.90;;;17.40;55.40;18.30;100887.00;;;;5029555;28;20167;-51
2022/04/26 11:14:20;;;;;;;12.40;9.43;;;17.40;55.30;18.30;100888.00;;;;5022245;28;20195;-52
2022/04/26 11:16:56;;;;;;;10.47;9.40;;;17.40;55.30;18.30;100887.00;;;;5009610;28;20165;-57
2022/04/26 11:19:47;;;;;;;13.07;9.60;;;17.50;55.20;18.30;100831.00;;;;5009539;28;20172;-53
2022/04/26 11:22:13;;;;;;;10.80;9.70;;;17.40;55.00;18.30;100878.00;;;;5008333;28;20196;-52
2022/04/26 11:30:09;;;;;;;10.00;8.97;;;17.50;55.30;18.30;100885.00;;;;5010200;28;20215;-49
2022/04/26 11:32:44;;;;;;;10.67;9.47;;;17.60;55.20;18.10;100885.00;;;;5007936;28;20656;-50
2022/04/26 11:35:11;;;;;;;10.13;8.90;;;17.60;55.20;18.30;100883.00;;;;5009122;28;20164;-50
2022/04/26 11:37:50;;;;;;;11.30;8.90;;;17.60;55.10;18.40;100893.00;;;;5007840;28;20185;-50
2022/04/26 11:40:33;;;;;;;11.93;9.00;;;17.60;55.10;18.40;100881.00;;;;5009526;28;20609;-51
2022/04/26 11:43:11;;;;;;;9.73;8.20;;;17.60;55.00;18.40;100883.00;;;;5008754;28;20235;-51
2022/04/26 11:45:37;;;;;;;9.50;8.03;;;17.60;55.10;18.40;100889.00;;;;5009314;28;20172;-51
2022/04/26 11:48:03;;;;;;;10.53;8.23;;;17.70;55.00;18.40;100887.00;;;;5008689;28;20658;-51
2022/04/26 11:50:30;;;;;;;9.40;7.90;;;17.70;55.10;18.40;100881.00;;;;5007175;28;20179;-52
2022/04/26 11:53:04;;;;;;;9.67;8.13;;;17.70;54.90;18.40;100891.00;;;;5006760;28;20200;-53
2022/04/26 11:55:43;;;;;;;9.23;7.90;;;17.70;55.00;18.40;100885.00;;;;5008519;28;20223;-52
2022/04/26 11:58:17;;;;;;;11.23;7.40;;;17.70;54.90;18.50;100884.00;;;;5008868;28;20173;-51
2022/04/26 12:01:11;;;;;;;9.67;7.77;;;17.80;55.00;18.50;100892.00;;;;4871806;28;20200;-52
2022/04/26 12:03:54;;;;;;;10.80;7.83;;;17.80;55.00;18.50;100889.00;;;;5006787;28;20226;-51
2022/04/26 12:06:28;;;;;;;10.30;7.67;;;17.80;55.00;18.50;100844.00;;;;5008508;28;20582;-51
2022/04/26 12:08:58;;;;;;;11.57;7.80;;;17.80;54.90;18.50;100880.00;;;;5007237;28;20211;-51
2022/04/26 12:11:26;;;;;;;8.20;7.27;;;17.80;54.90;18.50;100890.00;;;;5007653;28;20183;-53
2022/04/26 12:14:08;;;;;;;10.47;7.37;;;17.80;54.90;18.60;100883.00;;;;5007980;28;20197;-53
2022/04/26 12:16:45;;;;;;;8.27;7.27;;;17.90;55.00;18.60;100883.00;;;;5008286;28;20203;-54
2022/04/26 12:19:11;;;;;;;10.07;7.23;;;17.90;54.90;18.60;100876.00;;;;4999164;28;20197;-53
2022/04/26 12:21:46;;;;;;;7.57;6.87;;;17.90;54.70;18.70;100878.00;;;;5008063;28;20175;-52
2022/04/26 12:24:17;;;;;;;7.30;6.70;;;17.90;54.70;18.70;100876.00;;;;5007867;28;20214;-50
2022/04/26 12:27:05;;;;;;;7.20;6.50;;;18.00;54.70;18.70;100890.00;;;;5008120;28;20608;-50
2022/04/26 12:29:37;;;;;;;7.33;6.43;;;18.00;54.60;18.70;100865.00;;;;5008302;28;20180;-52
2022/04/26 12:32:07;;;;;;;7.40;6.70;;;18.00;54.60;18.80;100870.00;;;;5007801;28;20196;-53
2022/04/26 12:34:32;;;;;;;7.70;6.90;;;18.00;54.60;18.80;100874.00;;;;5008354;28;20190;-52
2022/04/26 12:37:21;;;;;;;7.33;6.60;;;18.00;54.60;18.80;100870.00;;;;5006971;28;20180;-50
2022/04/26 12:40:15;;;;;;;7.17;6.37;;;18.10;54.60;18.80;100875.00;;;;5008295;28;20173;-51
2022/04/26 12:42:42;;;;;;;6.77;6.17;;;18.10;54.50;18.90;100877.00;;;;5007695;28;20307;-52
2022/04/26 12:45:24;;;;;;;7.13;6.50;;;18.10;54.50;18.70;100869.00;;;;5008238;28;20231;-53
2022/04/26 12:50:55;;;;;;;6.53;5.83;;;18.10;54.40;18.90;100863.00;;;;5007534;28;20281;-52
2022/04/26 12:53:32;;;;;;;6.63;6.00;;;18.20;54.60;19.00;100864.00;;;;5006194;28;20202;-52
2022/04/26 12:56:06;;;;;;;6.93;6.20;;;18.20;54.60;19.00;100877.00;;;;5006945;28;20160;-52
2022/04/26 12:58:37;;;;;;;6.43;5.83;;;18.20;54.60;19.00;100871.00;;;;5008991;28;20596;-51
2022/04/26 13:01:03;;;;;;;9.00;6.37;;;18.20;54.50;19.10;100869.00;;;;5011550;28;20245;-53
2022/04/26 13:03:29;;;;;;;12.00;6.20;;;18.30;54.60;19.10;100863.00;;;;5011471;28;20814;-51
2022/04/26 13:06:18;;;;;;;24.93;7.27;;;18.30;54.70;19.10;100858.00;;;;5012400;28;20172;-55
2022/04/26 13:08:46;;;;;;;10.77;6.30;;;18.40;54.70;19.10;100862.00;;;;5019586;28;20655;-51
2022/04/26 13:11:12;;;;;;;9.90;5.90;;;18.40;54.70;19.20;100869.00;;;;5011747;28;20158;-52
2022/04/26 13:13:42;;;;;;;9.87;5.30;;;18.40;54.70;19.20;100851.00;;;;5011417;28;20267;-52
2022/04/26 13:16:08;;;;;;;12.10;5.93;;;18.40;54.70;19.20;100859.00;;;;5010262;28;20189;-51
2022/04/26 13:18:33;;;;;;;10.17;5.70;;;18.40;54.70;19.20;100857.00;;;;5010297;28;20266;-51
2022/04/26 13:21:00;;;;;;;6.97;5.60;;;18.50;54.70;19.30;100853.00;;;;5011664;28;20179;-51
2022/04/26 13:23:26;;;;;;;10.07;5.50;;;18.40;54.70;19.30;100868.00;;;;5012340;28;20203;-50
2022/04/26 13:25:52;;;;;;;7.37;5.87;;;18.40;54.80;19.30;100871.00;;;;5020292;28;20169;-51
2022/04/26 13:28:18;;;;;;;8.47;5.77;;;18.40;54.70;19.30;100866.00;;;;5020329;28;20205;-51
2022/04/26 13:30:43;;;;;;;7.40;5.30;;;18.40;54.70;19.30;100871.00;;;;5015872;28;20647;-52
2022/04/26 13:33:09;;;;;;;6.23;5.40;;;18.50;54.70;19.30;100867.00;;;;5012580;28;20203;-52
2022/04/26 13:35:37;;;;;;;7.20;5.53;;;18.50;54.70;19.40;100864.00;;;;5026495;28;20202;-52
2022/04/26 13:38:09;;;;;;;5.93;5.43;;;18.50;54.70;19.40;100865.00;;;;5011388;28;20170;-52
2022/04/26 13:40:37;;;;;;;8.90;5.43;;;18.50;54.70;19.40;100872.00;;;;5010307;28;20174;-52
2022/04/26 13:43:04;;;;;;;8.67;5.77;;;18.60;54.90;19.40;100872.00;;;;5011153;28;20211;-51
2022/04/26 13:45:30;;;;;;;6.07;5.23;;;18.50;54.70;19.40;100876.00;;;;5011904;28;20179;-50
2022/04/26 13:47:56;;;;;;;5.70;5.10;;;18.50;54.50;19.40;100855.00;;;;5012954;28;20176;-51
2022/04/26 13:50:21;;;;;;;5.60;5.10;;;18.60;54.60;19.40;100873.00;;;;5018712;28;20172;-51
2022/04/26 13:52:47;;;;;;;5.70;5.20;;;18.50;54.60;19.50;100874.00;;;;5018789;28;20757;-52
2022/04/26 13:55:17;;;;;;;6.90;5.53;;;18.60;54.70;19.50;100872.00;;;;5014098;28;20175;-51
2022/04/26 13:57:43;;;;;;;6.23;5.03;;;18.60;54.60;19.50;100874.00;;;;5013314;28;20172;-52
2022/04/26 14:00:11;;;;;;;5.93;5.33;;;18.60;54.60;19.50;100865.00;;;;5011376;28;20234;-52
2022/04/26 14:02:38;;;;;;;5.37;4.87;;;18.70;54.60;19.50;100867.00;;;;5008754;28;20298;-51
2022/04/26 14:05:04;;;;;;;5.70;4.87;;;18.70;54.50;19.60;100878.00;;;;5010650;28;20197;-51
2022/04/26 14:07:30;;;;;;;5.80;4.87;;;18.70;54.50;19.60;100873.00;;;;5010336;28;20546;-53
2022/04/26 14:09:56;;;;;;;5.67;5.07;;;18.70;54.50;19.60;100814.00;;;;5010695;28;20831;-52
2022/04/26 14:12:21;;;;;;;5.20;4.80;;;18.70;54.60;19.60;100875.00;;;;5010160;28;20190;-51
2022/04/26 14:23:00;;;;;;;4.87;4.47;;;18.70;54.30;19.70;100874.00;;;;5010450;28;20213;-51
2022/04/26 14:25:25;;;;;;;6.60;4.93;;;18.80;54.30;19.70;100878.00;;;;5010491;28;20172;-53
2022/04/26 14:27:51;;;;;;;5.27;4.77;;;18.80;54.30;19.70;100874.00;;;;5010837;28;20160;-51
2022/04/26 14:30:17;;;;;;;5.23;4.70;;;18.80;54.20;19.80;100882.00;;;;5009381;28;20175;-51
2022/04/26 14:32:44;;;;;;;5.37;4.87;;;18.80;54.30;19.80;100891.00;;;;5008673;28;20294;-51
2022/04/26 14:35:10;;;;;;;5.13;4.40;;;18.80;54.20;19.80;100901.00;;;;5012676;28;20181;-52
2022/04/26 14:37:36;;;;;;;4.93;4.43;;;18.90;54.30;19.80;100916.00;;;;5009002;28;20658;-52
2022/04/26 14:40:03;;;;;;;4.77;4.37;;;18.80;54.10;19.80;100925.00;;;;5010871;28;20171;-51
2022/04/26 14:42:29;;;;;;;4.80;4.40;;;18.90;54.10;19.90;100928.00;;;;5010208;28;20215;-52
2022/04/26 14:44:55;;;;;;;4.77;4.37;;;18.90;54.20;19.90;100949.00;;;;5011435;28;20237;-52
2022/04/26 14:47:21;;;;;;;4.50;4.10;;;18.90;54.00;19.90;100951.00;;;;5010689;28;20190;-51
2022/04/26 14:49:47;;;;;;;4.90;4.50;;;18.90;54.10;19.90;100954.00;;;;5009996;28;20172;-52
2022/04/26 14:52:18;;;;;;;4.80;4.40;;;18.90;53.90;19.90;100963.00;;;;5010224;28;20281;-51
2022/04/26 14:54:44;;;;;;;5.40;4.70;;;19.00;53.90;19.90;100957.00;;;;5011072;28;20239;-52